Time;durP1;ratioP1;P1;durP2;ratioP2;P2;SDS_P1;SDS_P2;PMS_P1;PMS_P2;Temp;Humidity;BMP_temperature;BMP_pressure;BME280_temperature;BME280_humidity;BME280_pressure;Samples;Min_cycle;Max_cycle;Signal;HPM_P1;HPM_P2
2021/11/10 00:00:29;;;;;;;50.73;27.17;;;;;;;1.99;82.51;102318.05;1448468;89;21510;-91
2021/11/10 00:02:57;;;;;;;54.50;29.50;;;;;;;1.94;82.99;102312.56;1436853;89;21489;-92
2021/11/10 00:05:24;;;;;;;51.00;27.10;;;;;;;1.96;82.98;102314.69;1443053;90;22359;-91
2021/11/10 00:07:51;;;;;;;56.50;30.23;;;;;;;1.95;83.06;102311.64;1440416;90;22678;-91
2021/11/10 00:10:18;;;;;;;52.57;28.10;;;;;;;1.93;82.69;102308.25;1432825;90;21646;-91
2021/11/10 00:12:48;;;;;;;45.87;27.50;;;;;;;1.96;82.82;102310.77;1444966;90;21696;-91
2021/11/10 00:15:15;;;;;;;43.97;25.83;;;;;;;1.97;82.82;102307.23;1443829;90;21674;-92
2021/11/10 00:17:42;;;;;;;52.57;26.37;;;;;;;1.92;82.27;102305.21;1450714;90;21875;-91
2021/11/10 00:20:12;;;;;;;49.67;26.97;;;;;;;1.89;82.10;102315.75;1446805;90;21819;-91
2021/11/10 00:22:41;;;;;;;50.70;30.02;;;;;;;1.83;81.87;102317.24;1447632;90;21622;-91
2021/11/10 00:25:10;;;;;;;44.23;27.30;;;;;;;1.80;82.14;102316.42;1432647;90;21532;-92
2021/11/10 00:27:37;;;;;;;38.77;24.27;;;;;;;1.80;82.44;102303.37;1429205;90;21630;-91
2021/11/10 00:30:05;;;;;;;46.53;26.80;;;;;;;1.79;81.86;102304.28;1442553;90;21632;-92
2021/11/10 00:32:32;;;;;;;45.67;27.10;;;;;;;1.76;81.55;102314.81;1446734;90;21599;-90
2021/11/10 00:34:59;;;;;;;54.43;27.97;;;;;;;1.76;81.73;102313.51;1438534;90;22726;-91
2021/11/10 00:37:27;;;;;;;51.87;26.50;;;;;;;1.77;81.84;102317.82;1442329;90;22634;-91
2021/11/10 00:39:53;;;;;;;46.37;26.13;;;;;;;1.79;81.90;102319.94;1443565;90;22643;-91
2021/11/10 00:42:21;;;;;;;49.93;26.73;;;;;;;1.74;81.53;102310.53;1444685;90;21781;-91
2021/11/10 00:44:49;;;;;;;53.30;27.60;;;;;;;1.67;81.23;102311.17;1451711;90;21735;-91
2021/11/10 00:47:16;;;;;;;42.03;24.20;;;;;;;1.62;81.23;102309.14;1443110;90;21840;-92
2021/11/10 00:49:43;;;;;;;47.13;26.07;;;;;;;1.56;81.24;102310.17;1445116;90;21795;-91
2021/11/10 00:52:10;;;;;;;41.20;24.20;;;;;;;1.52;81.43;102307.67;1443521;90;21733;-91
2021/11/10 00:54:37;;;;;;;38.83;23.80;;;;;;;1.50;81.14;102302.97;1438264;90;21793;-90
2021/11/10 00:57:05;;;;;;;48.90;25.80;;;;;;;1.44;80.94;102295.28;1443113;90;21913;-89
2021/11/10 00:59:32;;;;;;;44.60;26.10;;;;;;;1.38;81.15;102296.77;1441666;89;22576;-89
2021/11/10 01:01:59;;;;;;;43.07;25.90;;;;;;;1.34;81.52;102293.39;1444015;90;21727;-88
2021/11/10 01:04:26;;;;;;;57.97;30.37;;;;;;;1.32;81.67;102298.67;1450723;90;21450;-89
2021/11/10 01:06:53;;;;;;;51.50;26.97;;;;;;;1.29;81.80;102307.86;1437712;90;21654;-89
2021/11/10 01:09:23;;;;;;;57.63;29.40;;;;;;;1.29;82.52;102320.91;1449020;90;22584;-88
2021/11/10 01:11:50;;;;;;;51.23;28.23;;;;;;;1.30;82.81;102319.17;1447057;90;21681;-89
2021/11/10 01:14:18;;;;;;;60.10;28.57;;;;;;;1.31;83.50;102311.30;1444235;89;21689;-90
2021/11/10 01:16:49;;;;;;;59.37;31.27;;;;;;;1.28;83.62;102299.64;1410638;90;21675;-90
2021/11/10 01:19:16;;;;;;;47.17;22.75;;;;;;;1.25;83.98;102302.33;1426683;89;22376;-90
2021/11/10 01:21:43;;;;;;;52.03;28.27;;;;;;;1.21;84.43;102300.72;1408751;91;21962;-90
2021/11/10 01:24:10;;;;;;;71.07;37.37;;;;;;;1.18;84.28;102294.70;1433618;90;21614;-92
2021/11/10 01:26:38;;;;;;;98.90;51.30;;;;;;;1.16;84.33;102291.31;1426294;90;21601;-90
2021/11/10 01:29:05;;;;;;;67.67;35.83;;;;;;;1.17;83.89;102300.38;1438598;90;21687;-91
2021/11/10 01:31:33;;;;;;;51.47;26.30;;;;;;;1.17;83.61;102304.29;1436139;90;21572;-89
2021/11/10 01:34:07;;;;;;;51.83;27.10;;;;;;;1.22;83.51;102307.64;1442581;89;21629;-90
2021/11/10 01:36:30;;;;;;;49.60;25.73;;;;;;;1.25;83.13;102306.70;1442133;90;22635;-89
2021/11/10 01:38:57;;;;;;;56.87;28.67;;;;;;;1.22;83.48;102301.56;1440116;89;21727;-88
2021/11/10 01:41:24;;;;;;;65.07;36.50;;;;;;;1.21;83.17;102295.92;1444606;90;22526;-89
2021/11/10 01:43:51;;;;;;;72.87;36.90;;;;;;;1.17;82.79;102302.98;1448893;90;21566;-89
2021/11/10 01:46:18;;;;;;;55.57;29.10;;;;;;;1.15;82.61;102299.55;1447901;90;21653;-89
2021/11/10 01:48:45;;;;;;;59.30;30.27;;;;;;;1.12;82.44;102294.42;1435255;90;21440;-92
2021/11/10 01:51:13;;;;;;;68.93;37.67;;;;;;;1.09;82.94;102299.72;1449892;90;21739;-91
2021/11/10 01:53:40;;;;;;;66.83;35.60;;;;;;;1.07;82.52;102306.75;1431347;90;21932;-91
2021/11/10 01:56:07;;;;;;;86.97;41.93;;;;;;;1.01;82.58;102309.08;1450900;90;21788;-91
2021/11/10 01:58:34;;;;;;;330.00;132.33;;;;;;;0.96;82.55;102303.12;1427814;90;21706;-92
2021/11/10 02:01:01;;;;;;;68.37;36.20;;;;;;;0.94;82.83;102298.83;1448314;90;21815;-89
2021/11/10 02:03:29;;;;;;;62.47;32.13;;;;;;;0.92;82.63;102296.25;1460494;90;21484;-90
2021/11/10 02:05:56;;;;;;;51.40;25.93;;;;;;;0.90;82.18;102291.55;1457692;89;21922;-90
2021/11/10 02:08:23;;;;;;;54.07;27.97;;;;;;;0.84;81.86;102294.31;1464705;90;21696;-90
2021/11/10 02:10:51;;;;;;;58.30;29.43;;;;;;;0.87;82.07;102293.78;1449437;90;21598;-91
2021/11/10 02:13:19;;;;;;;50.90;28.97;;;;;;;0.82;82.45;102293.03;1445717;90;21695;-90
2021/11/10 02:15:46;;;;;;;63.63;29.07;;;;;;;0.83;82.51;102289.52;1439598;90;21787;-91
2021/11/10 02:18:13;;;;;;;70.70;36.33;;;;;;;0.84;82.77;102294.31;1444086;90;21769;-92
2021/11/10 02:20:41;;;;;;;61.97;30.60;;;;;;;0.89;82.52;102301.13;1446664;90;21907;-90
2021/11/10 02:23:08;;;;;;;54.57;29.50;;;;;;;0.94;82.40;102304.05;1443508;90;21825;-92
2021/11/10 02:25:36;;;;;;;48.83;28.60;;;;;;;0.90;81.94;102304.13;1446531;90;21608;-92
2021/11/10 02:28:04;;;;;;;48.73;27.60;;;;;;;0.86;81.87;102303.81;1447524;90;22224;-91
2021/11/10 02:30:31;;;;;;;51.73;30.17;;;;;;;0.82;82.19;102302.16;1440413;90;22458;-90
2021/11/10 02:33:01;;;;;;;46.90;27.67;;;;;;;0.75;82.24;102305.83;1443730;90;22737;-90
2021/11/10 02:35:32;;;;;;;49.03;26.80;;;;;;;0.75;82.25;102308.86;1439229;90;21714;-89
2021/11/10 02:38:06;;;;;;;50.25;27.70;;;;;;;0.78;82.43;102303.15;1437114;89;22564;-90
2021/11/10 02:40:35;;;;;;;48.67;29.07;;;;;;;0.75;82.51;102304.95;1429328;90;21325;-90
2021/11/10 02:43:03;;;;;;;47.60;26.47;;;;;;;0.70;82.94;102298.57;1447011;89;21888;-90
2021/11/10 02:45:30;;;;;;;55.07;30.40;;;;;;;0.69;82.75;102305.95;1447146;89;21822;-90
2021/11/10 02:47:58;;;;;;;49.33;26.23;;;;;;;0.67;82.75;102310.38;1428267;90;22525;-90
2021/11/10 02:50:31;;;;;;;53.57;27.20;;;;;;;0.64;82.54;102312.61;1448884;89;22573;-90
2021/11/10 02:52:59;;;;;;;57.27;27.73;;;;;;;0.65;82.42;102314.77;1443604;90;21704;-89
2021/11/10 02:55:27;;;;;;;58.53;29.43;;;;;;;0.64;82.13;102313.91;1446037;90;21503;-89
2021/11/10 02:57:55;;;;;;;43.87;26.67;;;;;;;0.63;81.95;102317.42;1445653;89;21686;-89
2021/11/10 03:00:23;;;;;;;60.60;32.87;;;;;;;0.61;81.97;102319.20;1441076;90;21641;-89
2021/11/10 03:02:54;;;;;;;58.33;29.57;;;;;;;0.61;81.92;102320.50;1427372;89;21838;-89
2021/11/10 03:05:24;;;;;;;49.80;26.57;;;;;;;0.62;81.88;102324.81;1429459;91;21564;-89
2021/11/10 03:07:53;;;;;;;53.50;31.33;;;;;;;0.62;81.94;102334.38;1426525;91;21775;-88
2021/11/10 03:10:20;;;;;;;55.80;32.50;;;;;;;0.57;81.64;102323.20;1412454;91;21590;-89
2021/11/10 03:12:48;;;;;;;57.23;32.00;;;;;;;0.52;81.85;102328.97;1428397;91;22577;-88
2021/11/10 03:15:15;;;;;;;58.67;31.90;;;;;;;0.47;81.95;102325.64;1430723;91;22332;-88
2021/11/10 03:17:45;;;;;;;52.07;26.27;;;;;;;0.44;82.33;102319.60;1409150;91;21492;-89
2021/11/10 03:20:12;;;;;;;50.73;27.57;;;;;;;0.43;82.31;102317.90;1421863;91;21445;-89
2021/11/10 03:22:40;;;;;;;50.97;27.53;;;;;;;0.43;82.46;102324.41;1426920;91;21587;-88
2021/11/10 03:25:07;;;;;;;49.47;29.80;;;;;;;0.39;82.63;102324.05;1429157;91;22627;-89
2021/11/10 03:27:34;;;;;;;48.30;29.10;;;;;;;0.40;82.77;102323.19;1429570;91;21876;-90
2021/11/10 03:30:05;;;;;;;46.10;27.03;;;;;;;0.40;82.86;102331.00;1424937;91;21623;-89
2021/11/10 03:32:32;;;;;;;48.08;29.90;;;;;;;0.41;83.25;102323.58;1427524;91;22534;-89
2021/11/10 03:34:59;;;;;;;45.00;26.97;;;;;;;0.44;83.44;102330.02;1428520;90;21527;-89
2021/11/10 03:37:26;;;;;;;52.93;28.07;;;;;;;0.44;82.87;102326.11;1423545;90;21597;-89
2021/11/10 03:39:53;;;;;;;44.13;24.17;;;;;;;0.41;82.66;102324.89;1428266;91;21534;-89
2021/11/10 03:42:22;;;;;;;54.20;27.43;;;;;;;0.44;82.83;102331.33;1424013;91;21536;-90
2021/11/10 03:44:51;;;;;;;45.83;27.17;;;;;;;0.47;82.81;102335.61;1408097;91;21586;-90
2021/11/10 03:47:19;;;;;;;43.57;23.90;;;;;;;0.41;82.74;102326.19;1435029;91;22692;-93
2021/11/10 03:49:46;;;;;;;46.67;25.07;;;;;;;0.38;82.71;102323.66;1427389;91;22608;-92
2021/11/10 03:52:14;;;;;;;45.00;24.43;;;;;;;0.36;82.09;102328.04;1424324;90;22353;-92
2021/11/10 03:54:43;;;;;;;46.97;24.47;;;;;;;0.31;82.17;102322.07;1430799;91;22444;-92
2021/11/10 03:57:11;;;;;;;44.37;24.40;;;;;;;0.29;82.12;102329.09;1427157;91;21674;-92
2021/11/10 03:59:39;;;;;;;46.10;24.43;;;;;;;0.19;82.19;102322.36;1410306;91;21698;-92
2021/11/10 04:02:09;;;;;;;52.03;26.07;;;;;;;0.15;82.79;102320.73;1411848;91;21726;-90
2021/11/10 04:04:37;;;;;;;49.67;26.10;;;;;;;0.15;82.77;102325.94;1423990;91;21694;-91
2021/11/10 04:07:05;;;;;;;48.20;25.80;;;;;;;0.07;82.20;102324.80;1412063;91;21660;-91
2021/11/10 04:09:32;;;;;;;52.37;27.37;;;;;;;-0.02;81.72;102325.00;1431908;91;21651;-92
2021/11/10 04:11:59;;;;;;;46.40;23.77;;;;;;;-0.14;82.20;102330.03;1427521;91;21592;-92
2021/11/10 04:14:28;;;;;;;52.60;26.87;;;;;;;-0.22;82.54;102328.03;1433443;91;21587;-91
2021/11/10 04:16:55;;;;;;;45.90;26.07;;;;;;;-0.23;82.74;102325.02;1428573;91;21565;-91
2021/11/10 04:19:22;;;;;;;41.93;25.00;;;;;;;-0.22;83.72;102315.02;1427513;91;21667;-92
2021/11/10 04:21:49;;;;;;;36.87;22.37;;;;;;;-0.27;82.75;102316.85;1428323;91;21575;-93
2021/11/10 04:24:16;;;;;;;37.53;22.43;;;;;;;-0.30;82.33;102319.52;1427301;91;21704;-91
2021/11/10 04:26:44;;;;;;;42.60;24.83;;;;;;;-0.34;82.61;102326.54;1429963;91;21578;-92
2021/11/10 04:29:11;;;;;;;40.53;23.90;;;;;;;-0.36;83.38;102327.45;1420962;91;22488;-91
2021/11/10 04:31:39;;;;;;;38.60;23.33;;;;;;;-0.35;83.35;102324.80;1432484;90;22981;-92
2021/11/10 04:34:07;;;;;;;37.37;24.83;;;;;;;-0.31;83.20;102329.52;1427965;91;21624;-91
2021/11/10 04:36:34;;;;;;;47.13;24.87;;;;;;;-0.28;83.03;102327.70;1432203;91;22016;-91
2021/11/10 04:39:04;;;;;;;46.17;26.23;;;;;;;-0.31;82.89;102326.92;1430766;91;21574;-92
2021/11/10 04:41:31;;;;;;;43.20;25.93;;;;;;;-0.31;82.67;102329.08;1428758;90;21697;-91
2021/11/10 04:43:58;;;;;;;44.90;25.60;;;;;;;-0.29;83.81;102321.22;1429398;91;21663;-90
2021/11/10 04:46:35;;;;;;;44.70;25.73;;;;;;;-0.27;83.55;102315.55;1430745;91;21592;-91
2021/11/10 04:48:54;;;;;;;50.20;25.97;;;;;;;-0.23;83.37;102318.52;1422165;91;21709;-91
2021/11/10 04:51:24;;;;;;;43.83;23.13;;;;;;;-0.25;83.32;102326.80;1419828;91;21984;-90
2021/11/10 04:53:52;;;;;;;41.83;25.37;;;;;;;-0.28;83.18;102317.75;1427133;91;23529;-89
2021/11/10 04:56:20;;;;;;;49.93;26.07;;;;;;;-0.28;83.58;102314.70;1424631;91;22989;-90
2021/11/10 04:58:48;;;;;;;39.93;25.30;;;;;;;-0.27;83.53;102324.20;1417906;90;21642;-91
2021/11/10 05:01:21;;;;;;;40.83;25.40;;;;;;;-0.31;83.93;102311.31;1426421;91;21631;-91
2021/11/10 05:03:44;;;;;;;36.20;22.23;;;;;;;-0.36;83.80;102310.09;1424674;89;22082;-93
2021/11/10 05:06:11;;;;;;;37.53;22.80;;;;;;;-0.37;83.66;102303.19;1427944;91;22488;-90
2021/11/10 05:08:38;;;;;;;46.37;25.37;;;;;;;-0.39;84.07;102305.41;1425502;91;21629;-91
2021/11/10 05:11:05;;;;;;;46.10;25.10;;;;;;;-0.41;83.99;102304.56;1422560;91;21656;-91
2021/11/10 05:13:32;;;;;;;62.90;28.77;;;;;;;-0.38;84.33;102294.09;1426289;91;21719;-92
2021/11/10 05:15:59;;;;;;;71.03;29.77;;;;;;;-0.35;84.36;102288.83;1429396;91;21599;-89
2021/11/10 05:18:26;;;;;;;54.93;27.83;;;;;;;-0.32;84.55;102288.76;1416102;91;23064;-89
2021/11/10 05:20:53;;;;;;;52.87;28.30;;;;;;;-0.29;84.47;102296.50;1427655;91;22105;-89
2021/11/10 05:23:21;;;;;;;138.83;62.10;;;;;;;-0.29;84.87;102296.50;1420945;91;21611;-91
2021/11/10 05:25:50;;;;;;;115.27;56.30;;;;;;;-0.30;85.04;102295.65;1431077;91;21707;-90
2021/11/10 05:28:17;;;;;;;190.63;91.63;;;;;;;-0.28;85.30;102293.03;1419382;91;21601;-90
2021/11/10 05:30:45;;;;;;;91.90;45.90;;;;;;;-0.23;85.40;102305.51;1426714;91;21559;-88
2021/11/10 05:33:13;;;;;;;44.77;21.70;;;;;;;-0.14;85.61;102298.80;1428451;91;21699;-89
2021/11/10 05:35:42;;;;;;;41.20;23.47;;;;;;;-0.10;85.26;102299.58;1421828;91;21653;-89
2021/11/10 05:38:09;;;;;;;41.50;25.27;;;;;;;-0.11;85.33;102300.48;1427804;91;21665;-89
2021/11/10 05:40:37;;;;;;;49.40;32.03;;;;;;;-0.10;84.98;102300.43;1429885;91;22608;-89
2021/11/10 05:43:05;;;;;;;53.67;31.70;;;;;;;-0.04;85.13;102309.41;1424613;91;22432;-91
2021/11/10 05:45:33;;;;;;;44.57;26.33;;;;;;;-0.05;85.36;102310.30;1425421;91;21504;-91
2021/11/10 05:48:00;;;;;;;41.57;25.67;;;;;;;-0.09;84.92;102306.03;1410139;91;22619;-92
2021/11/10 05:50:27;;;;;;;57.13;27.60;;;;;;;-0.09;84.52;102317.75;1425690;91;22424;-93
2021/11/10 05:52:55;;;;;;;216.63;81.33;;;;;;;-0.12;85.11;102317.81;1422205;91;22606;-91
2021/11/10 05:55:25;;;;;;;227.00;81.23;;;;;;;-0.16;84.98;102325.74;1428120;90;22447;-91
2021/11/10 05:57:53;;;;;;;256.27;89.70;;;;;;;-0.19;85.09;102320.61;1423239;91;21654;-91
2021/11/10 06:00:21;;;;;;;177.80;68.20;;;;;;;-0.27;84.97;102329.41;1418655;91;21453;-91
2021/11/10 06:02:50;;;;;;;178.17;64.80;;;;;;;-0.31;85.43;102326.47;1428143;90;21721;-90
2021/11/10 06:05:18;;;;;;;114.70;46.07;;;;;;;-0.33;85.63;102325.64;1446289;90;21617;-90
2021/11/10 06:07:46;;;;;;;173.73;64.70;;;;;;;-0.38;86.56;102330.52;1436482;91;22569;-91
2021/11/10 06:10:17;;;;;;;174.83;65.03;;;;;;;-0.40;86.40;102320.16;1435825;90;21532;-88
2021/11/10 06:12:46;;;;;;;93.50;38.47;;;;;;;-0.40;86.94;102325.37;1443625;91;22398;-91
2021/11/10 06:15:13;;;;;;;300.67;102.03;;;;;;;-0.39;86.62;102332.72;1440817;90;22618;-91
2021/11/10 06:17:41;;;;;;;184.17;62.83;;;;;;;-0.37;86.90;102337.46;1436491;91;21734;-90
2021/11/10 06:20:10;;;;;;;81.90;36.07;;;;;;;-0.35;86.99;102343.47;1435508;90;22399;-90
2021/11/10 06:22:38;;;;;;;445.83;156.07;;;;;;;-0.30;87.27;102342.48;1451320;89;21458;-88
2021/11/10 06:25:06;;;;;;;207.17;74.27;;;;;;;-0.24;88.04;102346.70;1437661;90;21562;-89
2021/11/10 06:27:35;;;;;;;106.00;43.33;;;;;;;-0.16;87.58;102343.95;1436337;90;21563;-90
2021/11/10 06:30:05;;;;;;;22.93;14.93;;;;;;;-0.12;87.61;102352.95;1438582;90;21676;-90
2021/11/10 06:32:32;;;;;;;30.83;17.87;;;;;;;0.01;87.59;102363.13;1416668;89;21765;-90
2021/11/10 06:34:59;;;;;;;23.07;15.67;;;;;;;0.14;87.58;102364.56;1443352;90;21695;-90
2021/11/10 06:37:26;;;;;;;28.50;19.87;;;;;;;0.26;87.54;102379.95;1439584;90;22650;-89
2021/11/10 06:39:53;;;;;;;32.83;20.07;;;;;;;0.35;86.97;102394.06;1418090;90;22836;-89
2021/11/10 06:42:21;;;;;;;25.77;17.50;;;;;;;0.31;86.36;102391.55;1436607;90;21800;-90
2021/11/10 06:44:48;;;;;;;32.77;19.97;;;;;;;0.30;87.17;102384.18;1442802;90;21721;-90
2021/11/10 06:47:16;;;;;;;67.57;32.43;;;;;;;0.39;87.32;102383.13;1436568;90;21714;-89
2021/11/10 06:49:43;;;;;;;62.60;28.57;;;;;;;0.45;87.40;102378.62;1439313;90;21700;-90
2021/11/10 06:52:13;;;;;;;80.63;38.67;;;;;;;0.53;87.45;102378.91;1438789;90;21683;-90
2021/11/10 06:54:40;;;;;;;188.97;87.00;;;;;;;0.60;87.54;102377.86;1446595;90;21561;-90
2021/11/10 06:57:08;;;;;;;79.77;39.33;;;;;;;0.66;87.00;102389.44;1435111;90;21747;-90
2021/11/10 06:59:35;;;;;;;160.63;73.07;;;;;;;0.74;87.03;102390.11;1415841;90;22538;-91
2021/11/10 07:02:02;;;;;;;45.87;25.80;;;;;;;0.81;86.83;102385.18;1413863;90;21652;-90
2021/11/10 07:04:29;;;;;;;50.97;28.53;;;;;;;0.92;86.69;102382.74;1424549;92;21682;-88
2021/11/10 07:06:56;;;;;;;43.33;25.80;;;;;;;0.99;86.70;102364.77;1432054;92;21648;-90
2021/11/10 07:09:24;;;;;;;29.27;18.77;;;;;;;1.04;86.56;102376.79;1414862;92;21603;-91
2021/11/10 07:11:51;;;;;;;29.60;19.63;;;;;;;1.12;86.53;102376.58;1416199;92;21683;-90
2021/11/10 07:14:18;;;;;;;24.50;16.90;;;;;;;1.20;86.47;102368.56;1420462;92;21661;-90
2021/11/10 07:16:46;;;;;;;21.20;16.47;;;;;;;1.29;86.30;102370.92;1419205;91;21893;-90
2021/11/10 07:19:13;;;;;;;21.60;16.40;;;;;;;1.34;85.99;102375.13;1421573;92;21805;-90
2021/11/10 07:21:40;;;;;;;33.80;22.20;;;;;;;1.37;85.74;102366.36;1417964;92;21772;-90
2021/11/10 07:24:08;;;;;;;21.23;16.67;;;;;;;1.39;85.89;102366.34;1406989;92;21720;-90
2021/11/10 07:26:36;;;;;;;22.57;17.00;;;;;;;1.47;86.10;102377.43;1413975;91;21572;-90
2021/11/10 07:29:03;;;;;;;22.63;14.67;;;;;;;1.57;86.03;102378.87;1421287;91;21521;-90
2021/11/10 07:31:31;;;;;;;22.97;16.53;;;;;;;1.65;85.91;102386.05;1418242;92;21840;-91
2021/11/10 07:33:59;;;;;;;31.83;20.60;;;;;;;1.70;85.83;102392.46;1419250;91;21973;-92
2021/11/10 07:36:30;;;;;;;26.70;17.80;;;;;;;1.73;85.78;102393.22;1412348;91;21783;-90
2021/11/10 07:38:58;;;;;;;25.43;18.65;;;;;;;1.86;85.54;102382.42;1421206;91;21787;-91
2021/11/10 07:41:30;;;;;;;25.83;16.07;;;;;;;1.86;85.54;102382.42;1416889;91;21420;-89
2021/11/10 07:43:57;;;;;;;29.07;19.63;;;;;;;1.82;85.20;102380.36;1401448;92;21938;-89
2021/11/10 07:46:26;;;;;;;31.80;19.50;;;;;;;1.87;85.34;102381.52;1421184;91;21883;-89
2021/11/10 07:48:54;;;;;;;41.83;22.90;;;;;;;2.03;86.03;102382.80;1419532;92;21924;-89
2021/11/10 07:51:21;;;;;;;47.17;27.17;;;;;;;2.03;86.03;102382.80;1413742;92;22588;-90
2021/11/10 07:53:49;;;;;;;36.93;24.53;;;;;;;2.12;86.17;102390.35;1421243;91;22093;-89
2021/11/10 07:56:17;;;;;;;32.63;21.10;;;;;;;2.12;86.17;102390.35;1416571;91;22323;-89
2021/11/10 07:58:44;;;;;;;43.20;25.10;;;;;;;2.35;86.37;102384.89;1425834;92;21875;-89
2021/11/10 08:01:13;;;;;;;27.83;17.27;;;;;;;2.35;86.37;102384.89;1421353;92;22010;-89
2021/11/10 08:03:40;;;;;;;43.50;25.90;;;;;;;2.34;86.29;102387.96;1418816;91;22017;-89
2021/11/10 08:06:07;;;;;;;24.40;17.07;;;;;;;2.47;86.64;102385.81;1428266;91;22186;-89
2021/11/10 08:08:34;;;;;;;24.87;17.40;;;;;;;2.48;86.80;102395.39;1429408;91;22012;-88
2021/11/10 08:11:04;;;;;;;21.70;16.97;;;;;;;2.48;86.52;102388.40;1430347;91;21867;-88
2021/11/10 08:13:32;;;;;;;69.40;37.13;;;;;;;2.60;86.58;102393.69;1432633;91;22159;-90
2021/11/10 08:16:00;;;;;;;30.03;19.33;;;;;;;2.60;86.58;102393.69;1414314;91;21866;-90
2021/11/10 08:18:28;;;;;;;28.43;18.40;;;;;;;2.73;86.49;102393.30;1425091;91;23137;-89
2021/11/10 08:20:58;;;;;;;22.70;16.50;;;;;;;2.73;86.49;102393.30;1426973;91;22204;-88
2021/11/10 08:23:26;;;;;;;24.20;16.90;;;;;;;2.77;86.42;102396.23;1426463;91;22689;-88
2021/11/10 08:25:57;;;;;;;24.73;16.53;;;;;;;2.85;86.41;102400.73;1429551;91;22106;-87
2021/11/10 08:28:30;;;;;;;24.87;18.02;;;;;;;2.92;86.36;102397.03;1428264;91;22099;-88
2021/11/10 08:30:58;;;;;;;51.87;30.13;;;;;;;2.98;86.42;102397.28;1426637;91;21575;-87
2021/11/10 08:33:27;;;;;;;30.67;21.33;;;;;;;3.03;86.86;102391.45;1425951;91;22175;-87
2021/11/10 08:35:54;;;;;;;24.63;16.37;;;;;;;3.09;87.06;102396.02;1429203;91;22006;-87
2021/11/10 08:38:22;;;;;;;21.50;15.73;;;;;;;3.16;86.55;102389.69;1429608;91;22210;-87
2021/11/10 08:40:51;;;;;;;27.07;16.10;;;;;;;3.20;86.47;102384.35;1428664;91;22106;-87
2021/11/10 08:43:19;;;;;;;27.10;17.10;;;;;;;3.23;86.32;102388.17;1424813;91;22149;-87
2021/11/10 08:45:50;;;;;;;24.37;16.47;;;;;;;3.33;86.53;102385.16;1432268;91;22107;-87
2021/11/10 08:48:18;;;;;;;29.00;18.03;;;;;;;3.37;86.73;102383.31;1429834;91;22121;-87
2021/11/10 08:50:46;;;;;;;25.13;17.00;;;;;;;3.39;86.66;102377.12;1423811;91;23914;-87
2021/11/10 08:53:19;;;;;;;25.40;18.23;;;;;;;3.42;87.04;102376.59;1425906;91;23585;-87
2021/11/10 08:55:56;;;;;;;23.83;14.90;;;;;;;3.54;86.61;102369.17;1404998;91;22311;-87
2021/11/10 08:58:26;;;;;;;22.73;17.03;;;;;;;3.58;87.03;102377.77;1380587;93;22077;-87
2021/11/10 09:00:54;;;;;;;26.83;17.80;;;;;;;3.64;86.75;102364.91;1392757;93;21459;-87
2021/11/10 09:03:23;;;;;;;24.90;17.87;;;;;;;3.64;86.75;102364.91;1398554;93;22324;-87
2021/11/10 09:05:52;;;;;;;23.07;16.80;;;;;;;3.75;87.32;102356.21;1393441;94;23333;-87
2021/11/10 09:08:23;;;;;;;26.53;18.83;;;;;;;3.75;87.32;102356.21;1395068;94;21568;-88
2021/11/10 09:10:50;;;;;;;25.40;17.20;;;;;;;3.85;86.66;102365.42;1389881;94;21576;-87
2021/11/10 09:13:19;;;;;;;30.37;20.13;;;;;;;3.97;86.54;102359.75;1395279;94;21436;-83
2021/11/10 09:15:46;;;;;;;34.47;19.33;;;;;;;4.13;86.64;102358.69;1374304;95;21617;-83
2021/11/10 09:18:14;;;;;;;23.20;16.90;;;;;;;4.21;86.49;102340.06;1390289;94;21510;-84
2021/11/10 09:20:55;;;;;;;27.63;18.00;;;;;;;4.40;86.12;102347.60;1393541;94;21591;-83
2021/11/10 09:23:22;;;;;;;24.02;17.02;;;;;;;4.51;86.01;102347.16;1387775;94;21354;-83
2021/11/10 09:25:50;;;;;;;30.40;19.47;;;;;;;4.66;85.63;102345.67;1392047;94;21458;-83
2021/11/10 09:28:21;;;;;;;24.67;17.93;;;;;;;4.70;85.18;102345.96;1397169;94;21572;-84
2021/11/10 09:30:51;;;;;;;;;;;;;;;4.82;84.80;102349.39;1400254;94;21613;-84
2021/11/10 09:33:20;;;;;;;33.73;20.97;;;;;;;4.84;85.33;102345.41;1392035;94;20932;-89
2021/11/10 09:35:51;;;;;;;27.93;18.87;;;;;;;4.96;84.96;102347.50;1397878;94;21562;-85
2021/11/10 09:38:19;;;;;;;32.13;20.85;;;;;;;5.01;84.29;102347.33;1399882;94;22344;-82
2021/11/10 09:40:47;;;;;;;24.03;18.17;;;;;;;5.11;84.36;102343.38;1396254;94;21413;-82
2021/11/10 09:43:15;;;;;;;26.60;18.87;;;;;;;5.18;85.33;102343.52;1393592;94;21466;-82
2021/11/10 09:45:46;;;;;;;27.67;18.37;;;;;;;5.35;85.46;102351.52;1397013;94;21508;-82
2021/11/10 09:48:15;;;;;;;28.27;19.12;;;;;;;5.40;84.32;102349.52;1366927;95;21429;-82
2021/11/10 09:50:45;;;;;;;26.40;19.07;;;;;;;5.46;84.52;102340.98;1393430;94;21325;-82
2021/11/10 09:53:15;;;;;;;27.62;19.37;;;;;;;5.57;83.86;102340.90;1363575;95;22375;-82
2021/11/10 09:55:42;;;;;;;50.83;32.77;;;;;;;5.58;82.87;102336.49;1394648;94;22433;-82
2021/11/10 09:58:10;;;;;;;28.77;19.30;;;;;;;5.40;83.18;102344.27;1392913;94;23282;-82
2021/11/10 10:01:01;;;;;;;33.87;22.70;;;;;;;5.26;84.40;102346.64;1400929;94;21399;-86
2021/11/10 10:03:28;;;;;;;30.68;22.50;;;;;;;5.19;84.97;102353.09;1386641;94;21547;-86
2021/11/10 10:05:56;;;;;;;33.70;20.67;;;;;;;5.29;84.68;102343.03;1385156;92;21526;-87
2021/11/10 10:08:23;;;;;;;29.77;21.17;;;;;;;5.25;84.43;102344.09;1373143;94;21393;-88
2021/11/10 10:10:51;;;;;;;28.20;20.17;;;;;;;5.23;84.41;102341.98;1381990;94;21453;-87
2021/11/10 10:13:21;;;;;;;31.30;20.43;;;;;;;5.26;84.38;102340.08;1384200;94;21607;-85
2021/11/10 10:15:51;;;;;;;40.30;26.13;;;;;;;5.20;85.32;102342.51;1367284;94;21474;-86
2021/11/10 10:18:23;;;;;;;112.50;79.55;;;;;;;5.35;85.29;102329.62;1371183;94;21556;-89
2021/11/10 10:21:07;;;;;;;35.43;24.60;;;;;;;5.50;85.18;102334.70;1458378;93;21378;-86
2021/11/10 10:23:45;;;;;;;30.73;21.83;;;;;;;5.61;84.84;102333.72;1456732;94;22334;-86
2021/11/10 10:26:17;;;;;;;31.83;23.27;;;;;;;5.70;84.50;102333.77;1390125;93;21459;-86
2021/11/10 10:28:52;;;;;;;31.53;21.43;;;;;;;5.78;84.10;102329.02;1383231;94;22295;-86
2021/11/10 10:31:24;;;;;;;42.83;28.17;;;;;;;5.95;84.30;102325.19;1382170;94;21567;-86
2021/11/10 10:33:56;;;;;;;40.03;27.00;;;;;;;6.17;84.50;102320.25;1383677;94;23341;-84
2021/11/10 10:36:30;;;;;;;32.83;22.57;;;;;;;6.37;84.10;102312.73;1379547;94;21638;-86
2021/11/10 10:39:05;;;;;;;32.73;22.50;;;;;;;6.49;82.84;102305.55;1379223;94;23470;-86
2021/11/10 10:41:40;;;;;;;30.00;21.70;;;;;;;6.58;82.44;102301.14;1379004;94;21378;-83
2021/11/10 10:44:14;;;;;;;31.37;21.77;;;;;;;6.69;82.38;102294.03;1420378;94;22354;-86
2021/11/10 10:46:48;;;;;;;28.03;20.53;;;;;;;6.72;81.38;102303.94;1380502;94;21379;-85
2021/11/10 10:49:31;;;;;;;28.07;21.00;;;;;;;6.84;81.04;102302.94;1383668;94;21349;-86
2021/11/10 10:52:12;;;;;;;30.27;18.80;;;;;;;6.93;81.00;102304.66;1380095;94;21422;-85
2021/11/10 10:54:42;;;;;;;26.93;19.03;;;;;;;7.11;80.58;102294.11;1387428;94;21452;-85
2021/11/10 10:57:10;;;;;;;30.57;21.13;;;;;;;7.24;80.27;102281.98;1384258;93;21487;-85
2021/11/10 10:59:37;;;;;;;29.33;21.93;;;;;;;7.31;79.75;102277.23;1380993;93;23199;-85
2021/11/10 11:02:07;;;;;;;32.83;24.10;;;;;;;7.35;79.51;102278.78;1392427;93;21406;-85
2021/11/10 11:04:45;;;;;;;32.87;21.53;;;;;;;7.27;77.49;102273.91;1393260;93;21473;-86
2021/11/10 11:07:13;;;;;;;33.53;22.27;;;;;;;7.31;78.62;102271.52;1449425;92;21437;-88
2021/11/10 11:09:48;;;;;;;29.47;21.17;;;;;;;7.49;79.05;102264.89;1487845;92;21386;-89
2021/11/10 11:15:24;;;;;;;33.87;22.03;;;;;;;7.68;75.34;102257.66;1356840;95;21724;-88
2021/11/10 11:17:47;;;;;;;26.80;18.47;;;;;;;7.72;76.31;102258.36;1373657;95;22632;-86
2021/11/10 11:20:19;;;;;;;27.77;18.10;;;;;;;7.81;77.10;102257.84;1353042;97;21490;-88
2021/11/10 11:22:52;;;;;;;28.00;19.33;;;;;;;7.82;76.28;102255.58;1366425;95;22124;-87